Malizia 2 — DGCG — position and weather

sailwx.info

Track history (hours):
 
Tides and Currents Weather Stations Pressure Air Temp Water Temp Dewpoint Dewpoint Depression Visibility Wind Speed Wind Dir Waves Ship Positions

Malizia 2

Last reported at 2017-Nov-05 19:54 UTC. Time now 2017-Dec-17 23:34 UTC.
Position N 49°44' W 001°52'.
Warning: this ship's position is 42 days out of date.

Type: Sailing vessel. MMSI: 211768710.

Date/timePositionNaut miles runAvg speedWind from/ knotsBaromVisibWave heightAir tempDewpointWater temp
2017-Nov-05 19:54N 49°44' W 001°52'512.8
2017-Nov-05 19:30N 49°43' W 001°44'714.5
2017-Nov-05 19:00N 49°44' W 001°33'815.0
2017-Nov-05 18:29N 49°45' W 001°21'2714.8
2017-Nov-05 16:39N 49°48' W 000°39'317.2
2017-Nov-05 16:28N 49°48' W 000°34'816.3
2017-Nov-05 16:00N 49°49' W 000°23'714.9
2017-Nov-05 15:30N 49°49' W 000°11'713.9
2017-Nov-05 15:00N 49°49' W 000°01'5 9.8
2017-Nov-05 14:30N 49°48' E 000°07'510.3
2017-Nov-05 14:00N 49°43' E 000°11'510.0
2017-Nov-05 13:29N 49°40' E 000°05'510.6
2017-Nov-05 13:00N 49°35' E 000°04'510.5
2017-Nov-05 12:30N 49°30' E 000°01'1 2.3
2017-Nov-05 12:00N 49°31' E 000°02'0 0.5
2017-Nov-05 11:30N 49°30' E 000°02'4 8.5
2017-Nov-05 11:00N 49°28' W 000°03'3 5.0
2017-Nov-05 10:30N 49°29' E 000°01'3 6.4
2017-Nov-05 10:00N 49°29' E 000°06'0 0.9
2017-Nov-05 09:31N 49°29' E 000°06'0 0.4
2017-Nov-05 09:01N 49°29' E 000°07'1 1.5
2017-Nov-05 08:28N 49°29' E 000°08'0 0.0
2017-Nov-05 07:58N 49°29' E 000°08'0 0.0
2017-Nov-05 07:28N 49°29' E 000°08'0 0.0
2017-Nov-04 16:43N 49°29' E 000°08'  
2017-Nov-02 11:41N 49°29' E 000°08'0 0.0
2017-Nov-02 11:29N 49°29' E 000°08'0 0.0
2017-Nov-02 10:59N 49°29' E 000°08'0 0.0
2017-Nov-02 10:29N 49°29' E 000°08'0 0.0
2017-Nov-02 09:59N 49°29' E 000°08'0 0.0
2017-Nov-02 09:29N 49°29' E 000°08'0 0.0
2017-Nov-02 08:59N 49°29' E 000°08'0 0.0
2017-Nov-01 02:00N 49°29' E 000°08'0 0.0
2017-Nov-01 01:30N 49°29' E 000°08'0 0.0
2017-Nov-01 01:00N 49°29' E 000°08'0 0.0
2017-Nov-01 00:30N 49°29' E 000°08'0 0.0
2017-Nov-01 00:00N 49°29' E 000°08'0 0.0
2017-Oct-31 23:30N 49°29' E 000°08'0 0.0
2017-Oct-31 23:00N 49°29' E 000°08'0 0.0
2017-Oct-31 22:27N 49°29' E 000°08'0 0.0
2017-Oct-31 22:00N 49°29' E 000°08'0 0.0
2017-Oct-31 21:30N 49°29' E 000°08'0 0.0
2017-Oct-31 21:00N 49°29' E 000°08'0 0.0
2017-Oct-31 20:30N 49°29' E 000°08'0 0.0
2017-Oct-31 20:00N 49°29' E 000°08'0 0.0
2017-Oct-31 19:30N 49°29' E 000°08'0 0.0
2017-Oct-31 19:00N 49°29' E 000°08'0 0.0
2017-Oct-31 18:30N 49°29' E 000°08'0 0.0
2017-Oct-31 18:00N 49°29' E 000°08'0 0.0
2017-Oct-31 17:30N 49°29' E 000°08'0 0.0
2017-Oct-31 17:00N 49°29' E 000°08'0 0.0
2017-Oct-31 16:30N 49°29' E 000°08'0 0.0
2017-Oct-31 15:57N 49°29' E 000°08'0 0.0
2017-Oct-31 15:30N 49°29' E 000°08'0 0.0
2017-Oct-31 15:00N 49°29' E 000°08'0 0.0
2017-Oct-31 14:30N 49°29' E 000°08'0 0.0
2017-Oct-31 14:00N 49°29' E 000°08'0 0.0
2017-Oct-31 13:30N 49°29' E 000°08'0 0.0
2017-Oct-31 13:00N 49°29' E 000°08'0 0.0
2017-Oct-31 12:30N 49°29' E 000°08'0 0.0
2017-Oct-31 12:00N 49°29' E 000°08'0 0.0
2017-Oct-31 11:30N 49°29' E 000°08'0 0.0
2017-Oct-31 11:00N 49°29' E 000°08'0 0.0
2017-Oct-31 10:30N 49°29' E 000°08'0 0.0
2017-Oct-31 10:00N 49°29' E 000°08'0 0.0
2017-Oct-31 09:30N 49°29' E 000°08'0 0.0
2017-Oct-29 14:44N 49°29' E 000°08'0 0.0
2017-Oct-29 14:29N 49°29' E 000°08'0 0.0
2017-Oct-29 13:59N 49°29' E 000°08'0 0.0
2017-Oct-29 13:29N 49°29' E 000°08'0 0.0
2017-Oct-29 12:59N 49°29' E 000°08'0 0.0
2017-Oct-29 12:29N 49°29' E 000°08'0 0.0
2017-Oct-28 08:32N 49°29' E 000°08'0 0.0
2017-Oct-28 08:29N 49°29' E 000°08'0 0.0
2017-Oct-28 08:00N 49°29' E 000°08'0 0.0
2017-Oct-28 07:30N 49°29' E 000°08'  
Track history (hours):
 
Tides and Currents Weather Stations Pressure Air Temp Water Temp Dewpoint Dewpoint Depression Visibility Wind Speed Wind Dir Waves Ship Positions

Malizia 2

Last reported at 2017-Nov-05 19:54 UTC. Time now 2017-Dec-17 23:34 UTC.
Position N 49°44' W 001°52'.
Warning: this ship's position is 42 days out of date.

Type: Sailing vessel. MMSI: 211768710.

Date/timePositionNaut miles runAvg speedWind from/ knotsBaromVisibWave heightAir tempDewpointWater temp
2017-Nov-05 19:54N 49°44' W 001°52'512.8
2017-Nov-05 19:30N 49°43' W 001°44'714.5
2017-Nov-05 19:00N 49°44' W 001°33'815.0
2017-Nov-05 18:29N 49°45' W 001°21'2714.8
2017-Nov-05 16:39N 49°48' W 000°39'317.2
2017-Nov-05 16:28N 49°48' W 000°34'816.3
2017-Nov-05 16:00N 49°49' W 000°23'714.9
2017-Nov-05 15:30N 49°49' W 000°11'713.9
2017-Nov-05 15:00N 49°49' W 000°01'5 9.8
2017-Nov-05 14:30N 49°48' E 000°07'510.3
2017-Nov-05 14:00N 49°43' E 000°11'510.0
2017-Nov-05 13:29N 49°40' E 000°05'510.6
2017-Nov-05 13:00N 49°35' E 000°04'510.5
2017-Nov-05 12:30N 49°30' E 000°01'1 2.3
2017-Nov-05 12:00N 49°31' E 000°02'0 0.5
2017-Nov-05 11:30N 49°30' E 000°02'4 8.5
2017-Nov-05 11:00N 49°28' W 000°03'3 5.0
2017-Nov-05 10:30N 49°29' E 000°01'3 6.4
2017-Nov-05 10:00N 49°29' E 000°06'0 0.9
2017-Nov-05 09:31N 49°29' E 000°06'0 0.4
2017-Nov-05 09:01N 49°29' E 000°07'1 1.5
2017-Nov-05 08:28N 49°29' E 000°08'0 0.0
2017-Nov-05 07:58N 49°29' E 000°08'0 0.0
2017-Nov-05 07:28N 49°29' E 000°08'0 0.0
2017-Nov-04 16:43N 49°29' E 000°08'  
2017-Nov-02 11:41N 49°29' E 000°08'0 0.0
2017-Nov-02 11:29N 49°29' E 000°08'0 0.0
2017-Nov-02 10:59N 49°29' E 000°08'0 0.0
2017-Nov-02 10:29N 49°29' E 000°08'0 0.0
2017-Nov-02 09:59N 49°29' E 000°08'0 0.0
2017-Nov-02 09:29N 49°29' E 000°08'0 0.0
2017-Nov-02 08:59N 49°29' E 000°08'0 0.0
2017-Nov-01 02:00N 49°29' E 000°08'0 0.0
2017-Nov-01 01:30N 49°29' E 000°08'0 0.0
2017-Nov-01 01:00N 49°29' E 000°08'0 0.0
2017-Nov-01 00:30N 49°29' E 000°08'0 0.0
2017-Nov-01 00:00N 49°29' E 000°08'0 0.0
2017-Oct-31 23:30N 49°29' E 000°08'0 0.0
2017-Oct-31 23:00N 49°29' E 000°08'0 0.0
2017-Oct-31 22:27N 49°29' E 000°08'0 0.0
2017-Oct-31 22:00N 49°29' E 000°08'0 0.0
2017-Oct-31 21:30N 49°29' E 000°08'0 0.0
2017-Oct-31 21:00N 49°29' E 000°08'0 0.0
2017-Oct-31 20:30N 49°29' E 000°08'0 0.0
2017-Oct-31 20:00N 49°29' E 000°08'0 0.0
2017-Oct-31 19:30N 49°29' E 000°08'0 0.0
2017-Oct-31 19:00N 49°29' E 000°08'0 0.0
2017-Oct-31 18:30N 49°29' E 000°08'0 0.0
2017-Oct-31 18:00N 49°29' E 000°08'0 0.0
2017-Oct-31 17:30N 49°29' E 000°08'0 0.0
2017-Oct-31 17:00N 49°29' E 000°08'0 0.0
2017-Oct-31 16:30N 49°29' E 000°08'0 0.0
2017-Oct-31 15:57N 49°29' E 000°08'0 0.0
2017-Oct-31 15:30N 49°29' E 000°08'0 0.0
2017-Oct-31 15:00N 49°29' E 000°08'0 0.0
2017-Oct-31 14:30N 49°29' E 000°08'0 0.0
2017-Oct-31 14:00N 49°29' E 000°08'0 0.0
2017-Oct-31 13:30N 49°29' E 000°08'0 0.0
2017-Oct-31 13:00N 49°29' E 000°08'0 0.0
2017-Oct-31 12:30N 49°29' E 000°08'0 0.0
2017-Oct-31 12:00N 49°29' E 000°08'0 0.0
2017-Oct-31 11:30N 49°29' E 000°08'0 0.0
2017-Oct-31 11:00N 49°29' E 000°08'0 0.0
2017-Oct-31 10:30N 49°29' E 000°08'0 0.0
2017-Oct-31 10:00N 49°29' E 000°08'0 0.0
2017-Oct-31 09:30N 49°29' E 000°08'0 0.0
2017-Oct-29 14:44N 49°29' E 000°08'0 0.0
2017-Oct-29 14:29N 49°29' E 000°08'0 0.0
2017-Oct-29 13:59N 49°29' E 000°08'0 0.0
2017-Oct-29 13:29N 49°29' E 000°08'0 0.0
2017-Oct-29 12:59N 49°29' E 000°08'0 0.0
2017-Oct-29 12:29N 49°29' E 000°08'0 0.0
2017-Oct-28 08:32N 49°29' E 000°08'0 0.0
2017-Oct-28 08:29N 49°29' E 000°08'0 0.0
2017-Oct-28 08:00N 49°29' E 000°08'0 0.0
2017-Oct-28 07:30N 49°29' E 000°08'  

Dump ship's entire track history